Time;durP1;ratioP1;P1;durP2;ratioP2;P2;SDS_P1;SDS_P2;PMS_P1;PMS_P2;Temp;Humidity;BMP_temperature;BMP_pressure;BME280_temperature;BME280_humidity;BME280_pressure;Samples;Min_cycle;Max_cycle;Signal;HPM_P1;HPM_P2
2023/11/12 00:00:38;;;;;;;;;;;7.00;88.60;;;;;;5078396;28;19935;-62
2023/11/12 00:03:11;;;;;;;;;;;7.00;88.60;;;;;;5077738;28;19955;-64
2023/11/12 00:05:44;;;;;;;;;;;7.00;88.70;;;;;;5078609;28;20272;-63
2023/11/12 00:08:18;;;;;;;;;;;7.00;88.90;;;;;;5075051;28;19924;-62
2023/11/12 00:10:54;;;;;;;;;;;7.00;88.90;;;;;;5078101;28;19928;-61
2023/11/12 00:13:29;;;;;;;;;;;7.00;88.90;;;;;;5078566;28;19928;-66
2023/11/12 00:16:02;;;;;;;;;;;7.00;88.80;;;;;;5079117;28;19932;-66
2023/11/12 00:18:35;;;;;;;;;;;6.90;88.80;;;;;;5062202;28;19924;-66
2023/11/12 00:21:11;;;;;;;;;;;7.00;88.90;;;;;;5077940;28;20032;-66
2023/11/12 00:23:44;;;;;;;;;;;7.00;89.00;;;;;;5074921;28;20345;-66
2023/11/12 00:26:17;;;;;;;;;;;7.00;88.90;;;;;;5077031;28;19931;-64
2023/11/12 00:28:55;;;;;;;;;;;7.00;88.90;;;;;;5079045;28;20370;-65
2023/11/12 00:31:28;;;;;;;;;;;7.00;88.90;;;;;;5079046;28;19924;-65
2023/11/12 00:33:55;;;;;;;;;;;6.90;88.90;;;;;;5079352;28;19928;-66
2023/11/12 00:36:30;;;;;;;;;;;6.90;89.00;;;;;;5079384;28;19931;-66
2023/11/12 00:39:04;;;;;;;;;;;7.00;89.00;;;;;;5076932;28;20020;-66
2023/11/12 00:41:38;;;;;;;;;;;6.90;89.10;;;;;;5078105;28;19937;-66
2023/11/12 00:44:12;;;;;;;;;;;6.90;89.10;;;;;;5077930;28;19925;-67
2023/11/12 00:46:45;;;;;;;;;;;7.00;89.10;;;;;;5053019;28;20436;-65
2023/11/12 00:49:18;;;;;;;;;;;7.00;88.90;;;;;;5058947;28;19928;-64
2023/11/12 00:51:51;;;;;;;;;;;7.00;89.00;;;;;;5077305;28;19963;-66
2023/11/12 00:54:24;;;;;;;;;;;6.90;89.00;;;;;;5076916;28;19928;-67
2023/11/12 00:56:57;;;;;;;;;;;6.90;89.00;;;;;;5076518;28;19978;-68
2023/11/12 00:59:33;;;;;;;;;;;7.00;89.00;;;;;;5078091;28;19924;-66
2023/11/12 01:02:07;;;;;;;;;;;7.00;88.90;;;;;;5071304;28;19932;-67
2023/11/12 01:04:40;;;;;;;;;;;7.00;88.90;;;;;;5076916;28;20367;-67
2023/11/12 01:07:13;;;;;;;;;;;6.90;89.00;;;;;;5060605;28;20354;-66
2023/11/12 01:09:46;;;;;;;;;;;6.90;89.10;;;;;;5077119;28;19964;-66
2023/11/12 01:12:21;;;;;;;;;;;6.90;89.00;;;;;;5057543;28;19928;-66
2023/11/12 01:14:56;;;;;;;;;;;7.00;89.10;;;;;;5078625;28;19927;-66
2023/11/12 01:17:29;;;;;;;;;;;7.00;89.00;;;;;;5078458;28;20382;-66
2023/11/12 01:20:03;;;;;;;;;;;7.00;88.90;;;;;;5073101;28;19928;-66
2023/11/12 01:22:36;;;;;;;;;;;7.00;89.00;;;;;;5055106;28;19929;-64
2023/11/12 01:25:09;;;;;;;;;;;6.90;88.90;;;;;;5052777;28;20485;-67
2023/11/12 01:27:43;;;;;;;;;;;6.90;89.20;;;;;;5074303;28;19925;-64
2023/11/12 01:30:18;;;;;;;;;;;6.90;89.00;;;;;;5045267;28;20361;-66
2023/11/12 01:32:52;;;;;;;;;;;7.00;89.00;;;;;;5057318;28;19929;-67
2023/11/12 01:35:25;;;;;;;;;;;7.00;89.00;;;;;;5056257;28;19990;-67
2023/11/12 01:37:59;;;;;;;;;;;7.00;88.90;;;;;;5065044;28;19924;-67
2023/11/12 01:40:37;;;;;;;;;;;7.00;88.90;;;;;;5073228;28;20002;-63
2023/11/12 01:43:10;;;;;;;;;;;7.00;89.00;;;;;;5054198;28;19935;-64
2023/11/12 01:45:45;;;;;;;;;;;7.00;89.00;;;;;;5055588;28;19939;-66
2023/11/12 01:48:18;;;;;;;;;;;7.00;89.10;;;;;;5071801;28;19955;-66
2023/11/12 01:50:52;;;;;;;;;;;7.00;88.90;;;;;;5052410;28;19928;-65
2023/11/12 01:53:26;;;;;;;;;;;7.00;88.90;;;;;;5068572;28;19936;-66
2023/11/12 01:55:59;;;;;;;;;;;7.00;88.80;;;;;;5073937;28;19932;-66
2023/11/12 01:58:32;;;;;;;;;;;7.10;88.90;;;;;;5054368;28;20029;-62
2023/11/12 02:01:07;;;;;;;;;;;7.00;89.00;;;;;;5055004;28;19931;-65
2023/11/12 02:03:44;;;;;;;;;;;6.90;89.00;;;;;;5070017;28;20405;-66
2023/11/12 02:06:17;;;;;;;;;;;7.00;88.90;;;;;;5073093;28;19931;-65
2023/11/12 02:08:50;;;;;;;;;;;7.10;88.90;;;;;;5048157;28;19969;-63
2023/11/12 02:11:30;;;;;;;;;;;7.00;88.80;;;;;;5070595;28;20279;-67
2023/11/12 02:14:03;;;;;;;;;;;7.00;88.70;;;;;;5068116;28;19950;-63
2023/11/12 02:16:38;;;;;;;;;;;7.00;88.80;;;;;;5070618;28;19932;-65
2023/11/12 02:19:22;;;;;;;;;;;7.00;88.80;;;;;;5061669;28;19970;-65
2023/11/12 02:21:55;;;;;;;;;;;7.00;88.90;;;;;;5061181;28;19928;-66
2023/11/12 02:24:33;;;;;;;;;;;7.00;88.80;;;;;;5075348;28;19935;-66
2023/11/12 02:27:06;;;;;;;;;;;7.00;88.70;;;;;;5080951;28;19928;-65
2023/11/12 02:29:47;;;;;;;;;;;7.00;88.70;;;;;;5054084;28;20306;-66
2023/11/12 02:32:20;;;;;;;;;;;7.00;88.60;;;;;;5075014;28;19977;-62
2023/11/12 02:34:53;;;;;;;;;;;7.00;88.60;;;;;;5057542;28;19928;-62
2023/11/12 02:37:26;;;;;;;;;;;7.00;88.60;;;;;;5076484;28;20011;-61
2023/11/12 02:40:01;;;;;;;;;;;7.00;88.70;;;;;;5080777;28;19924;-63
2023/11/12 02:42:34;;;;;;;;;;;7.00;88.70;;;;;;5068972;28;20378;-61
2023/11/12 02:45:10;;;;;;;;;;;7.00;88.80;;;;;;5076119;28;19928;-61
2023/11/12 02:47:37;;;;;;;;;;;7.00;88.90;;;;;;5075868;28;19932;-62
2023/11/12 02:50:21;;;;;;;;;;;7.00;88.70;;;;;;5074840;28;21939;-63
2023/11/12 02:52:56;;;;;;;;;;;7.00;88.70;;;;;;5071322;28;20366;-62
2023/11/12 02:55:31;;;;;;;;;;;7.00;88.80;;;;;;5076482;28;19977;-63
2023/11/12 02:58:04;;;;;;;;;;;7.00;88.80;;;;;;5054409;28;19932;-62
2023/11/12 03:00:37;;;;;;;;;;;7.00;88.70;;;;;;5056562;28;20455;-62
2023/11/12 03:03:14;;;;;;;;;;;7.00;88.70;;;;;;5074535;28;19981;-63
2023/11/12 03:05:48;;;;;;;;;;;7.00;88.80;;;;;;5041345;28;19924;-61
2023/11/12 03:08:21;;;;;;;;;;;7.00;88.70;;;;;;5079140;28;19940;-62
2023/11/12 03:10:56;;;;;;;;;;;7.00;88.70;;;;;;5073402;28;19930;-63
2023/11/12 03:13:29;;;;;;;;;;;7.00;88.80;;;;;;5075954;27;19924;-61
2023/11/12 03:16:02;;;;;;;;;;;7.00;88.70;;;;;;5058258;28;19928;-61
2023/11/12 03:18:35;;;;;;;;;;;7.00;88.80;;;;;;5078370;28;19931;-62
2023/11/12 03:21:10;;;;;;;;;;;7.00;88.80;;;;;;5074226;28;20402;-63
2023/11/12 03:23:43;;;;;;;;;;;7.00;88.80;;;;;;5060825;28;19943;-63
2023/11/12 03:26:18;;;;;;;;;;;6.90;88.80;;;;;;5076019;28;19959;-63
2023/11/12 03:28:51;;;;;;;;;;;7.00;88.90;;;;;;5053770;28;19924;-62
2023/11/12 03:31:25;;;;;;;;;;;7.00;88.80;;;;;;5075025;28;19936;-62
2023/11/12 03:33:58;;;;;;;;;;;7.00;88.80;;;;;;5070760;28;19996;-62
2023/11/12 03:36:31;;;;;;;;;;;7.10;88.80;;;;;;5077613;28;20031;-62
2023/11/12 03:39:04;;;;;;;;;;;7.00;88.70;;;;;;5054773;28;19929;-63
2023/11/12 03:41:39;;;;;;;;;;;7.10;88.80;;;;;;5050868;28;19932;-63
2023/11/12 03:44:12;;;;;;;;;;;7.00;88.60;;;;;;5055665;28;19978;-60
2023/11/12 03:46:45;;;;;;;;;;;7.00;88.70;;;;;;5056047;28;19936;-61
2023/11/12 03:49:19;;;;;;;;;;;7.10;88.40;;;;;;5075527;28;19924;-62
2023/11/12 03:51:53;;;;;;;;;;;7.10;88.40;;;;;;5057701;28;19934;-60
2023/11/12 03:54:26;;;;;;;;;;;7.10;88.50;;;;;;5067129;28;19932;-63
2023/11/12 03:56:54;;;;;;;;;;;7.00;88.50;;;;;;5048162;28;19928;-63
2023/11/12 03:59:27;;;;;;;;;;;7.10;88.40;;;;;;5073153;28;19924;-64
2023/11/12 04:02:01;;;;;;;;;;;7.00;88.40;;;;;;5054385;28;19924;-64
2023/11/12 04:04:34;;;;;;;;;;;7.10;88.40;;;;;;5075843;28;20410;-63
2023/11/12 04:07:08;;;;;;;;;;;7.10;88.40;;;;;;5074282;28;20542;-64
2023/11/12 04:09:40;;;;;;;;;;;7.10;88.20;;;;;;5070058;28;19928;-64
2023/11/12 04:12:21;;;;;;;;;;;7.10;88.30;;;;;;5073201;28;19939;-62
2023/11/12 04:14:57;;;;;;;;;;;7.10;88.30;;;;;;5071641;28;20019;-64
2023/11/12 04:17:37;;;;;;;;;;;7.10;88.30;;;;;;5080175;28;20291;-64
2023/11/12 04:20:11;;;;;;;;;;;7.10;88.30;;;;;;5077772;28;20010;-63
2023/11/12 04:22:43;;;;;;;;;;;7.10;88.30;;;;;;5054082;28;19977;-61
2023/11/12 04:25:16;;;;;;;;;;;7.10;88.20;;;;;;5057287;28;19939;-63
2023/11/12 04:27:51;;;;;;;;;;;7.10;88.20;;;;;;5070448;28;20287;-64
2023/11/12 04:30:24;;;;;;;;;;;7.10;88.20;;;;;;5050750;28;19925;-61
2023/11/12 04:32:57;;;;;;;;;;;7.10;88.20;;;;;;5064742;28;19928;-63
2023/11/12 04:35:30;;;;;;;;;;;7.10;88.20;;;;;;5078991;28;19936;-63
2023/11/12 04:38:03;;;;;;;;;;;7.10;88.40;;;;;;5077630;28;20023;-63
2023/11/12 04:40:37;;;;;;;;;;;7.10;88.20;;;;;;5074108;28;19956;-63
2023/11/12 04:43:12;;;;;;;;;;;7.10;88.30;;;;;;5075134;28;19933;-64
2023/11/12 04:45:45;;;;;;;;;;;7.10;88.30;;;;;;5073360;28;20017;-63
2023/11/12 04:48:21;;;;;;;;;;;7.10;88.40;;;;;;5072771;28;19928;-63
2023/11/12 04:50:54;;;;;;;;;;;7.10;88.30;;;;;;5071747;28;19932;-63
2023/11/12 04:53:28;;;;;;;;;;;7.10;88.40;;;;;;5073948;28;19933;-63
2023/11/12 04:56:02;;;;;;;;;;;7.10;88.30;;;;;;5075103;28;19932;-63
2023/11/12 04:58:36;;;;;;;;;;;7.10;88.40;;;;;;5075591;28;19932;-63
2023/11/12 05:01:09;;;;;;;;;;;7.10;88.40;;;;;;5054565;28;20402;-73
2023/11/12 05:03:42;;;;;;;;;;;7.10;88.30;;;;;;5075152;28;19964;-73
2023/11/12 05:06:15;;;;;;;;;;;7.20;88.40;;;;;;5076768;28;19928;-73
2023/11/12 05:08:48;;;;;;;;;;;7.20;88.40;;;;;;5074148;28;19924;-74
2023/11/12 05:11:21;;;;;;;;;;;7.20;88.30;;;;;;5072569;28;19932;-75
2023/11/12 05:13:56;;;;;;;;;;;7.20;88.30;;;;;;5078435;28;19924;-73
2023/11/12 05:16:36;;;;;;;;;;;7.20;88.20;;;;;;5073556;28;19940;-74
2023/11/12 05:19:10;;;;;;;;;;;7.20;88.20;;;;;;5077822;28;19929;-74
2023/11/12 05:21:44;;;;;;;;;;;7.20;88.20;;;;;;5076453;28;19978;-74
2023/11/12 05:24:16;;;;;;;;;;;7.20;88.10;;;;;;5070742;28;20378;-73
2023/11/12 05:26:50;;;;;;;;;;;7.20;88.10;;;;;;5076294;28;19935;-74
2023/11/12 05:29:25;;;;;;;;;;;7.20;88.20;;;;;;5069781;28;20380;-75
2023/11/12 05:31:58;;;;;;;;;;;7.20;88.00;;;;;;5071064;28;19936;-75
2023/11/12 05:34:31;;;;;;;;;;;7.20;88.10;;;;;;5074146;28;19924;-75
2023/11/12 05:37:04;;;;;;;;;;;7.20;88.00;;;;;;5073335;28;19924;-74
2023/11/12 05:39:37;;;;;;;;;;;7.20;88.00;;;;;;5074589;28;20341;-74
2023/11/12 05:42:10;;;;;;;;;;;7.20;88.00;;;;;;5042304;28;19932;-73
2023/11/12 05:44:45;;;;;;;;;;;7.20;88.10;;;;;;5046775;28;19924;-74
2023/11/12 05:47:18;;;;;;;;;;;7.20;88.30;;;;;;5049917;28;20011;-74
2023/11/12 05:49:54;;;;;;;;;;;7.20;88.30;;;;;;5045176;28;19947;-73
2023/11/12 05:52:27;;;;;;;;;;;7.20;88.40;;;;;;5048219;28;20016;-74
2023/11/12 05:55:00;;;;;;;;;;;7.20;88.40;;;;;;5051918;28;20372;-73
2023/11/12 05:57:33;;;;;;;;;;;7.20;88.20;;;;;;5053750;28;20299;-73
2023/11/12 06:00:09;;;;;;;;;;;7.20;88.30;;;;;;5075850;28;20408;-73
2023/11/12 06:02:42;;;;;;;;;;;7.30;88.10;;;;;;5075965;28;19935;-74
2023/11/12 06:05:09;;;;;;;;;;;7.20;88.20;;;;;;5071537;28;19928;-72
2023/11/12 06:07:42;;;;;;;;;;;7.20;88.30;;;;;;5068153;28;19924;-74
2023/11/12 06:10:15;;;;;;;;;;;7.30;88.30;;;;;;5076049;28;19934;-73
2023/11/12 06:12:48;;;;;;;;;;;7.30;88.20;;;;;;5076365;28;19940;-73
2023/11/12 06:15:26;;;;;;;;;;;7.30;88.20;;;;;;5074747;28;19932;-74
2023/11/12 06:17:58;;;;;;;;;;;7.20;88.20;;;;;;5079485;28;19931;-77
2023/11/12 06:20:33;;;;;;;;;;;7.20;88.30;;;;;;5058893;28;20460;-77
2023/11/12 06:23:06;;;;;;;;;;;7.20;88.40;;;;;;5077018;28;19924;-75
2023/11/12 06:25:39;;;;;;;;;;;7.30;88.30;;;;;;5081142;28;19928;-77
2023/11/12 06:28:13;;;;;;;;;;;7.30;88.30;;;;;;5078720;28;20497;-74
2023/11/12 06:30:47;;;;;;;;;;;7.30;88.20;;;;;;5075049;28;19936;-75
2023/11/12 06:33:21;;;;;;;;;;;7.30;88.40;;;;;;5076559;28;20036;-74
2023/11/12 06:35:54;;;;;;;;;;;7.30;88.30;;;;;;5077027;28;20019;-75
2023/11/12 06:38:27;;;;;;;;;;;7.30;88.10;;;;;;5080141;28;19928;-77
2023/11/12 06:41:04;;;;;;;;;;;7.30;88.00;;;;;;5079688;28;19928;-77
2023/11/12 06:43:36;;;;;;;;;;;7.30;88.30;;;;;;5081612;28;20028;-76
2023/11/12 06:46:06;;;;;;;;;;;7.30;88.10;;;;;;5075867;28;19928;-75
2023/11/12 06:48:39;;;;;;;;;;;7.30;88.10;;;;;;5079188;28;19955;-73
2023/11/12 06:51:20;;;;;;;;;;;7.30;88.30;;;;;;5079621;28;19943;-76
2023/11/12 06:53:53;;;;;;;;;;;7.30;88.20;;;;;;5079527;28;19931;-75
2023/11/12 06:56:32;;;;;;;;;;;7.30;88.30;;;;;;5076753;28;19951;-75
2023/11/12 06:59:05;;;;;;;;;;;7.30;88.20;;;;;;5078735;28;19924;-78
2023/11/12 07:01:39;;;;;;;;;;;7.30;88.30;;;;;;5072848;28;20481;-76
2023/11/12 07:04:13;;;;;;;;;;;7.20;88.30;;;;;;5077975;28;19981;-76
2023/11/12 07:06:46;;;;;;;;;;;7.30;88.30;;;;;;5055023;28;19928;-76
2023/11/12 07:09:19;;;;;;;;;;;7.30;88.40;;;;;;5079199;28;19981;-75
2023/11/12 07:11:53;;;;;;;;;;;7.30;88.20;;;;;;5079711;28;19924;-74
2023/11/12 07:14:26;;;;;;;;;;;7.30;88.20;;;;;;5079007;28;20430;-77
2023/11/12 07:17:00;;;;;;;;;;;7.30;88.20;;;;;;5078698;28;20390;-75
2023/11/12 07:19:34;;;;;;;;;;;7.30;88.30;;;;;;5080846;28;19927;-73
2023/11/12 07:22:06;;;;;;;;;;;7.40;88.30;;;;;;5076579;28;19974;-74
2023/11/12 07:24:40;;;;;;;;;;;7.30;88.30;;;;;;5081333;28;19932;-74
2023/11/12 07:27:12;;;;;;;;;;;7.30;88.30;;;;;;5079874;28;19932;-76
2023/11/12 07:29:45;;;;;;;;;;;7.40;88.40;;;;;;5080123;28;20355;-77
2023/11/12 07:32:20;;;;;;;;;;;7.40;88.30;;;;;;5080496;27;19928;-62
2023/11/12 07:34:53;;;;;;;;;;;7.30;88.30;;;;;;5059682;28;19963;-61
2023/11/12 07:37:27;;;;;;;;;;;7.30;88.40;;;;;;5079214;28;20314;-61
2023/11/12 07:40:10;;;;;;;;;;;7.30;88.50;;;;;;5072240;28;19924;-62
2023/11/12 07:42:44;;;;;;;;;;;7.40;88.50;;;;;;5078335;28;19925;-63
2023/11/12 07:45:17;;;;;;;;;;;7.30;88.50;;;;;;5071350;28;19936;-63
2023/11/12 07:47:58;;;;;;;;;;;7.30;88.50;;;;;;5068676;28;19928;-62
2023/11/12 07:50:31;;;;;;;;;;;7.40;88.50;;;;;;5078318;28;20432;-61
2023/11/12 07:53:05;;;;;;;;;;;7.40;88.50;;;;;;5079781;28;20016;-61
2023/11/12 07:55:37;;;;;;;;;;;7.40;88.40;;;;;;5076773;28;19928;-62
2023/11/12 07:58:18;;;;;;;;;;;7.40;88.50;;;;;;5079261;28;19951;-62
2023/11/12 08:00:51;;;;;;;;;;;7.30;88.50;;;;;;5073054;27;19935;-62
2023/11/12 08:03:26;;;;;;;;;;;7.30;88.50;;;;;;5078540;28;20301;-62
2023/11/12 08:05:59;;;;;;;;;;;7.40;88.60;;;;;;5074729;28;19932;-61
2023/11/12 08:08:33;;;;;;;;;;;7.40;88.50;;;;;;5076253;28;19928;-62
2023/11/12 08:11:05;;;;;;;;;;;7.40;88.50;;;;;;5078311;28;20290;-61
2023/11/12 08:13:39;;;;;;;;;;;7.40;88.50;;;;;;5074150;28;20297;-61
2023/11/12 08:16:13;;;;;;;;;;;7.40;88.40;;;;;;5074251;28;20341;-61
2023/11/12 08:18:47;;;;;;;;;;;7.40;88.40;;;;;;5077819;28;19935;-61
2023/11/12 08:21:21;;;;;;;;;;;7.40;88.30;;;;;;5071369;28;19931;-62
2023/11/12 08:23:53;;;;;;;;;;;7.40;88.30;;;;;;5077298;28;20018;-61
2023/11/12 08:26:29;;;;;;;;;;;7.50;88.20;;;;;;5073952;28;19935;-62
2023/11/12 08:29:03;;;;;;;;;;;7.40;88.10;;;;;;5076339;28;19932;-61
2023/11/12 08:31:36;;;;;;;;;;;7.40;88.00;;;;;;5072227;28;19933;-63
2023/11/12 08:34:04;;;;;;;;;;;7.40;87.90;;;;;;5075611;28;19986;-62
2023/11/12 08:36:37;;;;;;;;;;;7.40;87.80;;;;;;5075806;28;19932;-63
2023/11/12 08:39:12;;;;;;;;;;;7.40;87.80;;;;;;5066629;28;19932;-61
2023/11/12 08:41:46;;;;;;;;;;;7.40;87.80;;;;;;5072802;28;19935;-64
2023/11/12 08:44:26;;;;;;;;;;;7.40;87.80;;;;;;5079664;28;19935;-64
2023/11/12 08:46:59;;;;;;;;;;;7.50;87.80;;;;;;5071405;28;20440;-63
2023/11/12 08:49:34;;;;;;;;;;;7.50;87.70;;;;;;5072834;28;20077;-64
2023/11/12 08:52:07;;;;;;;;;;;7.50;87.70;;;;;;5056473;28;20303;-63
2023/11/12 08:54:40;;;;;;;;;;;7.40;87.60;;;;;;5072771;28;20014;-64
2023/11/12 08:57:12;;;;;;;;;;;7.50;87.50;;;;;;5064836;28;19943;-63
2023/11/12 08:59:39;;;;;;;;;;;7.60;87.50;;;;;;5075321;28;19924;-62
2023/11/12 09:02:12;;;;;;;;;;;7.60;87.50;;;;;;5073256;28;19931;-64
2023/11/12 09:04:47;;;;;;;;;;;7.70;87.40;;;;;;5073988;28;20435;-63
2023/11/12 09:07:20;;;;;;;;;;;7.90;87.10;;;;;;5075423;28;19929;-63
2023/11/12 09:09:53;;;;;;;;;;;7.90;87.10;;;;;;5076155;28;19967;-62
2023/11/12 09:12:27;;;;;;;;;;;7.90;87.00;;;;;;5077929;28;20436;-62
2023/11/12 09:14:54;;;;;;;;;;;8.00;86.90;;;;;;5072293;28;19934;-63
2023/11/12 09:17:27;;;;;;;;;;;8.00;86.80;;;;;;5074984;28;19925;-63
2023/11/12 09:20:03;;;;;;;;;;;8.10;86.50;;;;;;5072608;28;19942;-64
2023/11/12 09:22:36;;;;;;;;;;;8.10;86.50;;;;;;5070207;28;19925;-63
2023/11/12 09:25:11;;;;;;;;;;;8.10;86.10;;;;;;5073700;28;19930;-63
2023/11/12 09:27:45;;;;;;;;;;;8.20;85.60;;;;;;5079596;28;19978;-65
2023/11/12 09:30:17;;;;;;;;;;;8.30;85.50;;;;;;5080949;28;20379;-64
2023/11/12 09:32:50;;;;;;;;;;;8.30;85.10;;;;;;5078202;28;20339;-63
2023/11/12 09:35:25;;;;;;;;;;;8.40;85.20;;;;;;5060066;28;20039;-64
2023/11/12 09:37:59;;;;;;;;;;;8.40;84.60;;;;;;5075408;28;19928;-64
2023/11/12 09:40:32;;;;;;;;;;;8.50;84.60;;;;;;5076576;28;19924;-63
2023/11/12 09:43:06;;;;;;;;;;;8.60;84.10;;;;;;5078437;28;19924;-64
2023/11/12 09:45:43;;;;;;;;;;;8.60;83.90;;;;;;5077982;28;20016;-63
2023/11/12 09:48:23;;;;;;;;;;;8.60;83.70;;;;;;5074350;28;19934;-63
2023/11/12 09:50:59;;;;;;;;;;;8.60;83.80;;;;;;5078332;28;20031;-62
2023/11/12 09:53:33;;;;;;;;;;;8.60;83.60;;;;;;5075255;28;19963;-74
2023/11/12 09:56:09;;;;;;;;;;;8.60;83.90;;;;;;5069882;28;20011;-75
2023/11/12 09:58:44;;;;;;;;;;;8.60;83.50;;;;;;5074846;28;19928;-73
2023/11/12 10:01:19;;;;;;;;;;;8.70;83.40;;;;;;5079178;28;19986;-75
2023/11/12 10:03:53;;;;;;;;;;;8.70;83.40;;;;;;5073697;28;19935;-74
2023/11/12 10:06:27;;;;;;;;;;;8.70;83.40;;;;;;5079152;28;19940;-76
2023/11/12 10:09:01;;;;;;;;;;;8.70;83.10;;;;;;5078083;28;20023;-75
2023/11/12 10:11:28;;;;;;;;;;;8.70;83.10;;;;;;5076665;28;19986;-77
2023/11/12 10:14:01;;;;;;;;;;;8.70;82.70;;;;;;5072342;28;20380;-75
2023/11/12 10:16:34;;;;;;;;;;;8.70;83.10;;;;;;5075659;28;20784;-76
2023/11/12 10:19:10;;;;;;;;;;;8.70;82.60;;;;;;5062679;28;19998;-75
2023/11/12 10:21:55;;;;;;;;;;;8.70;82.70;;;;;;5079723;28;19928;-75
2023/11/12 10:24:28;;;;;;;;;;;8.70;82.30;;;;;;5071127;28;19947;-76
2023/11/12 10:27:05;;;;;;;;;;;8.80;82.20;;;;;;5071409;28;20036;-75
2023/11/12 10:29:41;;;;;;;;;;;8.80;82.20;;;;;;5078342;27;19929;-75
2023/11/12 10:32:24;;;;;;;;;;;9.00;81.90;;;;;;5072596;28;20387;-74
2023/11/12 10:34:57;;;;;;;;;;;8.90;81.80;;;;;;5076203;28;19925;-76
2023/11/12 10:37:25;;;;;;;;;;;9.10;81.80;;;;;;5076849;28;19951;-76
2023/11/12 10:40:06;;;;;;;;;;;9.10;81.60;;;;;;5077384;28;19928;-76
2023/11/12 10:42:39;;;;;;;;;;;9.10;81.40;;;;;;5074418;28;19937;-75
2023/11/12 10:45:15;;;;;;;;;;;9.20;80.80;;;;;;5080326;28;19931;-75
2023/11/12 10:47:50;;;;;;;;;;;9.20;80.80;;;;;;5074287;28;19960;-75
2023/11/12 10:50:17;;;;;;;;;;;9.30;80.60;;;;;;5077035;28;19981;-75
2023/11/12 10:52:53;;;;;;;;;;;9.40;80.40;;;;;;5081561;28;20389;-77
2023/11/12 10:55:26;;;;;;;;;;;9.40;79.90;;;;;;5081730;28;19982;-74
2023/11/12 10:58:00;;;;;;;;;;;9.40;80.10;;;;;;5076171;28;19938;-74
2023/11/12 11:00:35;;;;;;;;;;;9.40;79.70;;;;;;5076848;28;20375;-75
2023/11/12 11:03:08;;;;;;;;;;;9.40;79.60;;;;;;5079267;28;19928;-62
2023/11/12 11:05:42;;;;;;;;;;;9.40;79.40;;;;;;5079071;28;19959;-62
2023/11/12 11:08:20;;;;;;;;;;;9.40;79.90;;;;;;5075062;28;19979;-62
2023/11/12 11:10:53;;;;;;;;;;;9.40;79.70;;;;;;5076913;28;19932;-62
2023/11/12 11:13:27;;;;;;;;;;;9.40;79.70;;;;;;5074747;28;19937;-62
2023/11/12 11:16:01;;;;;;;;;;;9.50;79.50;;;;;;5061311;28;20272;-62
2023/11/12 11:18:48;;;;;;;;;;;9.50;79.50;;;;;;5076663;28;19935;-62
2023/11/12 11:21:22;;;;;;;;;;;9.60;79.50;;;;;;5078086;28;19924;-62
2023/11/12 11:23:57;;;;;;;;;;;9.50;79.70;;;;;;5073888;28;20398;-60
2023/11/12 11:26:34;;;;;;;;;;;9.50;80.00;;;;;;5076872;28;19929;-62
2023/11/12 11:29:17;;;;;;;;;;;9.40;80.10;;;;;;5078603;28;20020;-59
2023/11/12 11:32:15;;;;;;;;;;;9.50;80.20;;;;;;5074873;28;19928;-62
2023/11/12 11:34:49;;;;;;;;;;;9.50;80.20;;;;;;5077205;28;19924;-61
2023/11/12 11:37:24;;;;;;;;;;;9.60;80.30;;;;;;5076618;28;19935;-60
2023/11/12 11:40:22;;;;;;;;;;;9.60;80.30;;;;;;5077044;28;20028;-60
2023/11/12 11:43:11;;;;;;;;;;;9.60;80.10;;;;;;5076342;28;19936;-61
2023/11/12 11:46:03;;;;;;;;;;;9.70;80.30;;;;;;5078295;28;20280;-62
2023/11/12 11:48:37;;;;;;;;;;;9.70;80.10;;;;;;5075690;28;20404;-60
2023/11/12 11:51:30;;;;;;;;;;;9.70;80.30;;;;;;5058299;28;20027;-60
2023/11/12 11:54:04;;;;;;;;;;;9.70;80.30;;;;;;5075522;28;19928;-62
2023/11/12 11:56:39;;;;;;;;;;;9.70;80.20;;;;;;5072727;28;19932;-61
2023/11/12 11:59:13;;;;;;;;;;;9.70;80.10;;;;;;5075054;28;20374;-61
2023/11/12 12:01:47;;;;;;;;;;;9.70;80.40;;;;;;5072895;28;20702;-61
2023/11/12 12:04:21;;;;;;;;;;;9.70;80.00;;;;;;5068592;28;19959;-62
2023/11/12 12:06:55;;;;;;;;;;;9.70;79.90;;;;;;5057061;28;19925;-61
2023/11/12 12:09:29;;;;;;;;;;;9.70;79.70;;;;;;5061201;28;19933;-61
2023/11/12 12:12:03;;;;;;;;;;;9.70;79.60;;;;;;5074490;28;19931;-65
2023/11/12 12:14:37;;;;;;;;;;;9.70;79.10;;;;;;5071438;28;19932;-65
2023/11/12 12:17:10;;;;;;;;;;;9.70;79.30;;;;;;5047606;28;19931;-68
2023/11/12 12:19:43;;;;;;;;;;;9.70;79.00;;;;;;5046193;28;19928;-65
2023/11/12 12:22:19;;;;;;;;;;;9.70;78.80;;;;;;5066870;28;19978;-67
2023/11/12 12:24:55;;;;;;;;;;;9.70;79.20;;;;;;5064374;28;19924;-68
2023/11/12 12:27:50;;;;;;;;;;;9.60;79.20;;;;;;5074528;28;19925;-68
2023/11/12 12:30:24;;;;;;;;;;;9.60;78.90;;;;;;5070213;28;20283;-69
2023/11/12 12:32:57;;;;;;;;;;;9.50;79.30;;;;;;5072128;28;19934;-66
2023/11/12 12:35:31;;;;;;;;;;;9.50;79.20;;;;;;5077972;28;20336;-68
2023/11/12 12:38:08;;;;;;;;;;;9.40;79.70;;;;;;5052253;28;19977;-67
2023/11/12 12:40:41;;;;;;;;;;;9.40;79.30;;;;;;5072363;28;20010;-68
2023/11/12 12:43:17;;;;;;;;;;;9.40;79.40;;;;;;5071832;28;19938;-66
2023/11/12 12:45:56;;;;;;;;;;;9.40;79.50;;;;;;5072491;28;19991;-66
2023/11/12 12:48:29;;;;;;;;;;;9.40;79.70;;;;;;5076323;28;19969;-69
2023/11/12 12:51:04;;;;;;;;;;;9.40;79.50;;;;;;5076916;28;19988;-67
2023/11/12 12:53:37;;;;;;;;;;;9.50;79.70;;;;;;5077125;28;19990;-68
2023/11/12 12:56:10;;;;;;;;;;;9.50;79.30;;;;;;5069874;28;19927;-68
2023/11/12 12:58:46;;;;;;;;;;;9.60;79.20;;;;;;5068651;28;19940;-68
2023/11/12 13:01:19;;;;;;;;;;;9.60;79.30;;;;;;5077999;28;19924;-69
2023/11/12 13:03:52;;;;;;;;;;;9.60;79.20;;;;;;5072278;28;20031;-67
2023/11/12 13:06:26;;;;;;;;;;;9.60;79.40;;;;;;5068998;28;20019;-68
2023/11/12 13:08:59;;;;;;;;;;;9.60;79.40;;;;;;5075064;28;19924;-69
2023/11/12 13:11:33;;;;;;;;;;;9.60;79.40;;;;;;5075729;28;19947;-69
2023/11/12 13:14:07;;;;;;;;;;;9.70;79.60;;;;;;5070388;28;19944;-69
2023/11/12 13:16:35;;;;;;;;;;;9.70;79.50;;;;;;5073036;28;19961;-68
2023/11/12 13:19:14;;;;;;;;;;;9.60;79.80;;;;;;5074955;28;19924;-68
2023/11/12 13:21:49;;;;;;;;;;;9.60;79.90;;;;;;5076559;28;19959;-66
2023/11/12 13:24:25;;;;;;;;;;;9.60;79.70;;;;;;5075991;28;19975;-66
2023/11/12 13:26:58;;;;;;;;;;;9.70;79.90;;;;;;5072581;28;19932;-63
2023/11/12 13:29:33;;;;;;;;;;;9.60;79.60;;;;;;5075876;28;19973;-64
2023/11/12 13:32:07;;;;;;;;;;;9.60;79.80;;;;;;5073043;28;19938;-64
2023/11/12 13:34:43;;;;;;;;;;;9.60;79.60;;;;;;5068785;28;19928;-65
2023/11/12 13:37:17;;;;;;;;;;;9.70;79.70;;;;;;5074253;28;19924;-63
2023/11/12 13:39:51;;;;;;;;;;;9.70;79.70;;;;;;5075275;28;19931;-64
2023/11/12 13:42:27;;;;;;;;;;;9.70;79.50;;;;;;5072548;28;20019;-65
2023/11/12 13:45:03;;;;;;;;;;;9.70;79.60;;;;;;5072509;28;20428;-64
2023/11/12 13:47:37;;;;;;;;;;;9.70;79.40;;;;;;5078069;28;19929;-65
2023/11/12 13:50:11;;;;;;;;;;;9.70;79.70;;;;;;5071947;28;19968;-65
2023/11/12 13:52:47;;;;;;;;;;;9.70;79.50;;;;;;5075460;28;19924;-65
2023/11/12 13:55:21;;;;;;;;;;;9.60;79.60;;;;;;5076319;28;19932;-65
2023/11/12 13:57:55;;;;;;;;;;;9.50;79.90;;;;;;5073708;28;19936;-65
2023/11/12 14:00:30;;;;;;;;;;;9.60;79.90;;;;;;5073724;28;20371;-66
2023/11/12 14:03:03;;;;;;;;;;;9.60;80.00;;;;;;5075102;28;19923;-64
2023/11/12 14:05:36;;;;;;;;;;;9.60;79.60;;;;;;5077081;28;20256;-64
2023/11/12 14:08:09;;;;;;;;;;;9.50;79.80;;;;;;5075751;28;19950;-65
2023/11/12 14:10:46;;;;;;;;;;;9.50;79.90;;;;;;5076397;28;20024;-66
2023/11/12 14:13:21;;;;;;;;;;;9.50;80.00;;;;;;5076239;28;20011;-66
2023/11/12 14:15:57;;;;;;;;;;;9.50;80.10;;;;;;5069182;28;19951;-65
2023/11/12 14:18:31;;;;;;;;;;;9.50;80.10;;;;;;5070772;28;19932;-65
2023/11/12 14:21:04;;;;;;;;;;;9.50;80.00;;;;;;5071065;28;19933;-64
2023/11/12 14:23:38;;;;;;;;;;;9.50;80.00;;;;;;5071069;28;19929;-63
2023/11/12 14:26:12;;;;;;;;;;;9.50;80.00;;;;;;5070983;28;19997;-66
2023/11/12 14:28:46;;;;;;;;;;;9.60;79.90;;;;;;5073454;28;20011;-66
2023/11/12 14:31:21;;;;;;;;;;;9.50;79.70;;;;;;5075714;28;19977;-75
2023/11/12 14:33:55;;;;;;;;;;;9.50;80.00;;;;;;5072150;28;21648;-75
2023/11/12 14:36:28;;;;;;;;;;;9.60;79.90;;;;;;5076514;28;19997;-76
2023/11/12 14:39:01;;;;;;;;;;;9.50;79.80;;;;;;5070067;28;19928;-76
2023/11/12 14:41:34;;;;;;;;;;;9.50;79.90;;;;;;5075935;28;19950;-76
2023/11/12 14:44:07;;;;;;;;;;;9.50;80.10;;;;;;5076999;28;19967;-77
2023/11/12 14:46:41;;;;;;;;;;;9.50;80.30;;;;;;5075820;28;19927;-77
2023/11/12 14:49:15;;;;;;;;;;;9.40;80.30;;;;;;5077996;28;19936;-74
2023/11/12 14:51:54;;;;;;;;;;;9.40;80.40;;;;;;5076651;28;19924;-76
2023/11/12 14:54:29;;;;;;;;;;;9.40;80.50;;;;;;5068128;28;19932;-75
2023/11/12 14:56:58;;;;;;;;;;;9.30;80.70;;;;;;5079424;28;19929;-77
2023/11/12 14:59:34;;;;;;;;;;;9.30;80.90;;;;;;5077602;28;19932;-75
2023/11/12 15:02:09;;;;;;;;;;;9.30;81.10;;;;;;5077316;28;20055;-75
2023/11/12 15:04:42;;;;;;;;;;;9.30;81.30;;;;;;5076846;28;19924;-74
2023/11/12 15:07:15;;;;;;;;;;;9.20;81.30;;;;;;5076972;28;19924;-77
2023/11/12 15:09:48;;;;;;;;;;;9.20;81.40;;;;;;5075152;28;19930;-75
2023/11/12 15:12:21;;;;;;;;;;;9.20;81.50;;;;;;5077760;28;19927;-77